ケアンズ の空港の天気 - METARとTAF

ケアンズ国際空港 ( YBCS / CNS ) - オーストラリア クイーンズランド州ケアンズ
飛行場実況気象(Metar)
観測時間01/20 13:00 AEST (01/20 03:00 UTC)
風向・風速南東 8m/s
視程10km以上
天気現象
なし
気温30℃
湿度66%
気圧1010hPa
METARYBCS 200300Z AUTO 13016KT 9999 // NCD 30/23 Q1010 RMK RF00.0/000.0 NOSIG
過去の天気等 Google飛行場航空写真 Wunderground天気予報

過去48時間のMETAR

飛行場予報(TAF)
発表時間: 1/20 08:38 AEST (1/19 22:38 UTC)
予報対象時間: 20日10時 AEST ~ 21日10時 AEST
風向・風速東南東 7m/s
視程10km以上
少しの雲 雲底高度 910m
全天の4割程度の雲 雲底高度 1370m
20日19時 AEST から
風向・風速南南東 5m/s
視程10km以上
天気現象弱いしゅう雨
少しの雲 雲底高度 760m
全天の8割程度の雲 雲底高度 1070m
TAF YBCS 192238Z 2000/2024 12014KT 9999 FEW030 SCT045
FM200900 15010KT 9999 -SHRA FEW025 BKN035